Arnot, Pennsylvania
Current Conditions -  °F | °C
As of 9:15 PM on Sunday 25 Jan 2015 (Local Time) from KN38 Reporting Station
Overcast Overcast  
Wind Chill:   Ceiling: 3600
Heat Index: 16°   Visibility: 10mi
Dew Point:   Wind: 9mph
Humidity: 73%   Direction: 40°NE
Pressure: 29.89"   Gusts: NA
Location:  41.66°N, 77.12°W
Report Text: KN38 260215Z AUTO 04008KT 10SM BKN036 BKN090 OVC110 M09/M13 A2989 RMK AO2
Loading
Personal Weather Stations






























Interactive Weather Map New forecast layout! Learn more

10-Day Weather Forecast

Advertisements
Track Severe Weather on mobile